To NAV CANADA Home Page Login to a new session Search on AWWS site Disclaimer Vers la page française équivalente Tips FAQ What's new on the site To the Forecasts and Observations / NOTAM section To "File a Flight Plan" website Publications and other links Update of the User's profile FIC Telephone Numbers My Weather Data Folder Route Weather Data Regional Weather Data Local Weather Data To the Forecasts and Observations / NOTAM section
Request Generated 04/24/2019 at 16:48:03 UTC . Weather information available at that time is displayed.

METAR/TAF

CASTLEGAR/WEST KOOTENAY REGIONAL/BC    

METAR CYCG 241600Z 35004KT 320V040 15SM FEW060 10/02 A3012 RMK CU1 SLP206=
METAR CYCG 241500Z 00000KT 15SM FEW060 07/02 A3012 RMK CU1 SLP209=
METAR CYCG 241400Z 11003KT 100V160 15SM SKC 04/01 A3010 RMK SLP203=

TAF CYCG 241439Z 2415/2503 VRB03KT P6SM SKC
FM241900 35008KT P6SM FEW080
RMK NXT FCST BY 241900Z=
Your time UTC time
Weather data provided by Environment Canada and NAV CANADA